5M6 weather

Sugar Springs Airpark
Gladwin, Michigan, United States

Public forecast

Using degrees Fahrenheit for public forecast. Weather courtesy of forecast.io.

METAR (pilot weather report)

Closest report is Roscommon County - Blodgett Memorial Airport, 16.6 nm (30.7 km) NW. Retrieved 2019/09/22 19:28 UTC (0 seconds ago):

KHTL 221928Z AUTO 21011G20KT 10SM BKN017 OVC022 21/19 A2980

TAF (pilot weather forecast)

Closest forecast is MBS International Airport, 39.6 nm (73.4 km) SSE. Retrieved 2019/09/22 18:22 UTC (56 minutes ago):

TAF KMBS 221720Z 2218/2318 21015G24KT P6SM SCT022 BKN045 OVC080 FM230000 22013KT 4SM SHRA BR VCTS OVC015CB FM230800 25009KT 3SM -SHRA BR OVC007 FM231400 28014G22KT P6SM OVC015